createdAt,value
2018-09-22T00:02:38.749Z,23.67
2018-09-22T00:05:07.484Z,22.07
2018-09-22T00:07:36.200Z,22.90
2018-09-22T01:02:37.947Z,9.60
2018-09-22T01:05:06.745Z,6.83
2018-09-22T01:07:35.466Z,6.20
2018-09-22T01:10:04.224Z,5.73
2018-09-22T02:02:39.221Z,1.40
2018-09-22T02:05:07.962Z,1.30
2018-09-22T02:07:36.649Z,1.50
2018-09-22T02:10:05.470Z,1.47
2018-09-22T03:02:38.713Z,1.23
2018-09-22T03:05:07.610Z,1.10
2018-09-22T03:07:36.413Z,1.03
2018-09-22T03:10:06.189Z,1.17
2018-09-22T04:02:35.993Z,1.30
2018-09-22T04:05:04.693Z,1.60
2018-09-22T04:07:41.800Z,1.13
2018-09-22T05:02:36.145Z,2.07
2018-09-22T05:05:05.066Z,1.80
2018-09-22T05:07:33.880Z,1.77
2018-09-22T05:10:02.753Z,1.90
2018-09-22T06:02:36.124Z,2.67
2018-09-22T06:05:05.345Z,2.93
2018-09-22T06:07:34.174Z,3.20
2018-09-22T06:10:02.953Z,2.50
2018-09-22T07:02:37.737Z,3.07
2018-09-22T07:05:06.464Z,3.00
2018-09-22T07:07:53.672Z,3.33
2018-09-22T08:02:36.055Z,4.83
2018-09-22T08:05:04.904Z,4.57
2018-09-22T08:07:33.668Z,4.10
2018-09-22T08:10:02.474Z,5.17
2018-09-22T09:02:36.350Z,3.73
2018-09-22T09:05:05.157Z,3.77
2018-09-22T09:07:33.985Z,3.43
2018-09-22T09:10:02.745Z,3.60
2018-09-22T10:02:36.673Z,1.70
2018-09-22T10:05:05.581Z,2.07
2018-09-22T10:07:38.921Z,2.40
2018-09-22T11:02:36.301Z,1.60
2018-09-22T11:05:05.180Z,1.57
2018-09-22T11:07:33.999Z,1.60
2018-09-22T11:10:02.866Z,2.00
2018-09-22T12:02:36.034Z,1.43
2018-09-22T12:05:04.893Z,1.30
2018-09-22T12:07:33.646Z,1.30
2018-09-22T12:10:02.570Z,1.23
2018-09-22T13:02:36.867Z,1.37
2018-09-22T13:05:05.709Z,1.23
2018-09-22T13:07:34.850Z,1.30
2018-09-22T13:10:03.729Z,1.40
2018-09-22T14:02:37.169Z,1.37
2018-09-22T14:05:06.002Z,1.40
2018-09-22T14:07:34.795Z,1.10
2018-09-22T14:10:03.634Z,1.30
2018-09-22T15:02:37.065Z,1.47
2018-09-22T15:05:05.933Z,1.50
2018-09-22T15:07:34.710Z,1.60
2018-09-22T15:10:03.762Z,1.30
2018-09-22T18:02:35.182Z,3.87
2018-09-22T18:05:03.917Z,3.80
2018-09-22T18:07:32.635Z,3.60
2018-09-22T18:10:01.411Z,4.00
2018-09-22T19:02:38.717Z,3.87
2018-09-22T19:05:07.561Z,4.10
2018-09-22T19:07:36.317Z,4.10
2018-09-22T20:02:37.227Z,5.87
2018-09-22T20:05:06.476Z,8.00
2018-09-22T20:07:35.328Z,24.23
2018-09-22T21:02:37.807Z,6.80
2018-09-22T21:05:06.701Z,5.87
2018-09-22T21:07:36.038Z,5.93
2018-09-22T21:10:05.164Z,5.95
2018-09-22T22:02:40.029Z,7.63
2018-09-22T22:05:08.808Z,7.67
2018-09-22T22:07:38.197Z,7.70
2018-09-22T22:10:07.060Z,4.37
2018-09-22T22:12:35.865Z,6.13
2018-09-22T22:15:18.180Z,6.50
2018-09-22T22:17:47.003Z,5.80
2018-09-22T22:20:15.796Z,10.60
2018-09-22T22:22:51.321Z,9.97
2018-09-22T22:25:20.463Z,5.80
2018-09-22T22:27:49.320Z,7.23
2018-09-22T22:30:18.168Z,6.47
2018-09-22T22:32:46.977Z,5.60
2018-09-22T22:35:17.573Z,15.87
2018-09-22T22:37:46.417Z,9.77
2018-09-22T22:40:15.264Z,6.15
2018-09-22T22:42:44.062Z,8.43
2018-09-22T22:45:12.844Z,6.73
2018-09-22T22:47:41.700Z,12.73
2018-09-22T22:50:10.488Z,6.27
2018-09-22T22:52:39.256Z,6.03
2018-09-22T22:55:08.045Z,6.80
2018-09-22T22:57:52.388Z,8.10
2018-09-22T23:00:21.346Z,14.53
2018-09-22T23:02:50.224Z,7.43
2018-09-22T23:05:18.913Z,6.97
2018-09-22T23:07:47.666Z,7.70
